Anta, Peru
Current Conditions -  °F | °C
As of 2:00 PM on Friday 24 Oct 2014 (Local Time) from SPRU Reporting Station
Overcast Overcast  
Wind Chill: 19°   Ceiling: 1900
Heat Index: 19°   Visibility: 6mi
Dew Point: 15°   Wind: 13mph
Humidity: 78%   Direction: 170°S
Pressure: 29.91"   Gusts: NA
Location:  9.35°S, 77.6°W
Report Text: SPRU 241900Z 17011KT 9999 OVC019 19/15 Q1013 RMK PP000
Loading
Personal Weather Stations






























Interactive Weather Map
Tropical Storm Tracking
New forecast layout! Learn more

10-Day Weather Forecast

Advertisements
Track Severe Weather on mobile